sensor_id;sensor_type;location;lat;lon;timestamp;pressure;altitude;pressure_sealevel;temperature;humidity
43770;BME280;6597;52.218;9.882;2024-03-06T00:02:04;101090.06;;;3.43;100.00
43770;BME280;6597;52.218;9.882;2024-03-06T00:04:33;101101.31;;;3.43;100.00
43770;BME280;6597;52.218;9.882;2024-03-06T00:06:59;101098.72;;;3.47;100.00
43770;BME280;6597;52.218;9.882;2024-03-06T00:09:27;101101.31;;;3.48;100.00
43770;BME280;6597;52.218;9.882;2024-03-06T00:11:53;101103.91;;;3.48;100.00
43770;BME280;6597;52.218;9.882;2024-03-06T00:14:21;101100.44;;;3.49;100.00
43770;BME280;6597;52.218;9.882;2024-03-06T00:16:48;101093.53;;;3.47;100.00
43770;BME280;6597;52.218;9.882;2024-03-06T00:19:15;101098.72;;;3.45;100.00
43770;BME280;6597;52.218;9.882;2024-03-06T00:21:43;101103.91;;;3.50;100.00
43770;BME280;6597;52.218;9.882;2024-03-06T00:24:11;101103.03;;;3.49;100.00
43770;BME280;6597;52.218;9.882;2024-03-06T00:26:39;101103.03;;;3.49;100.00
43770;BME280;6597;52.218;9.882;2024-03-06T00:29:06;101095.25;;;3.51;100.00
43770;BME280;6597;52.218;9.882;2024-03-06T00:31:32;101107.34;;;3.56;100.00
43770;BME280;6597;52.218;9.882;2024-03-06T00:33:59;101105.63;;;3.54;100.00
43770;BME280;6597;52.218;9.882;2024-03-06T00:36:25;101109.06;;;3.56;100.00
43770;BME280;6597;52.218;9.882;2024-03-06T00:38:53;101106.47;;;3.56;100.00
43770;BME280;6597;52.218;9.882;2024-03-06T00:41:20;101113.41;;;3.55;100.00
43770;BME280;6597;52.218;9.882;2024-03-06T00:43:46;101109.94;;;3.56;100.00
43770;BME280;6597;52.218;9.882;2024-03-06T00:46:13;101121.22;;;3.58;100.00
43770;BME280;6597;52.218;9.882;2024-03-06T00:48:39;101126.41;;;3.58;100.00
43770;BME280;6597;52.218;9.882;2024-03-06T00:51:06;101134.19;;;3.60;100.00
43770;BME280;6597;52.218;9.882;2024-03-06T00:53:33;101135.06;;;3.62;100.00
43770;BME280;6597;52.218;9.882;2024-03-06T00:56:02;101118.63;;;3.60;100.00
43770;BME280;6597;52.218;9.882;2024-03-06T00:58:28;101130.75;;;3.58;100.00
43770;BME280;6597;52.218;9.882;2024-03-06T01:00:55;101126.41;;;3.63;100.00
43770;BME280;6597;52.218;9.882;2024-03-06T01:03:22;101131.59;;;3.64;100.00
43770;BME280;6597;52.218;9.882;2024-03-06T01:05:49;101135.06;;;3.66;100.00
43770;BME280;6597;52.218;9.882;2024-03-06T01:08:17;101135.06;;;3.65;100.00
43770;BME280;6597;52.218;9.882;2024-03-06T01:10:44;101132.44;;;3.66;100.00
43770;BME280;6597;52.218;9.882;2024-03-06T01:13:11;101140.25;;;3.60;100.00
43770;BME280;6597;52.218;9.882;2024-03-06T01:15:38;101146.31;;;3.59;100.00
43770;BME280;6597;52.218;9.882;2024-03-06T01:18:05;101148.03;;;3.59;100.00
43770;BME280;6597;52.218;9.882;2024-03-06T01:20:31;101154.97;;;3.61;100.00
43770;BME280;6597;52.218;9.882;2024-03-06T01:22:58;101145.44;;;3.65;100.00
43770;BME280;6597;52.218;9.882;2024-03-06T01:25:24;101148.91;;;3.65;100.00
43770;BME280;6597;52.218;9.882;2024-03-06T01:27:51;101143.69;;;3.68;100.00
43770;BME280;6597;52.218;9.882;2024-03-06T01:30:19;101145.44;;;3.71;100.00
43770;BME280;6597;52.218;9.882;2024-03-06T01:32:45;101148.88;;;3.73;100.00
43770;BME280;6597;52.218;9.882;2024-03-06T01:35:12;101155.81;;;3.74;100.00
43770;BME280;6597;52.218;9.882;2024-03-06T01:37:38;101152.34;;;3.77;100.00
43770;BME280;6597;52.218;9.882;2024-03-06T01:40:06;101156.66;;;3.79;100.00
43770;BME280;6597;52.218;9.882;2024-03-06T01:42:34;101160.13;;;3.83;100.00
43770;BME280;6597;52.218;9.882;2024-03-06T01:45:01;101158.41;;;3.79;100.00
43770;BME280;6597;52.218;9.882;2024-03-06T01:47:29;101156.66;;;3.81;100.00
43770;BME280;6597;52.218;9.882;2024-03-06T01:49:56;101161.00;;;3.80;100.00
43770;BME280;6597;52.218;9.882;2024-03-06T01:52:23;101162.72;;;3.80;100.00
43770;BME280;6597;52.218;9.882;2024-03-06T01:54:50;101162.72;;;3.81;100.00
43770;BME280;6597;52.218;9.882;2024-03-06T01:57:18;101168.78;;;3.85;100.00
43770;BME280;6597;52.218;9.882;2024-03-06T01:59:46;101167.91;;;3.81;100.00
43770;BME280;6597;52.218;9.882;2024-03-06T02:02:12;101170.50;;;3.81;100.00
43770;BME280;6597;52.218;9.882;2024-03-06T02:04:40;101168.78;;;3.85;100.00
43770;BME280;6597;52.218;9.882;2024-03-06T02:07:08;101162.72;;;3.81;100.00
43770;BME280;6597;52.218;9.882;2024-03-06T02:09:36;101165.31;;;3.78;100.00
43770;BME280;6597;52.218;9.882;2024-03-06T02:12:04;101161.84;;;3.78;100.00
43770;BME280;6597;52.218;9.882;2024-03-06T02:14:30;101167.06;;;3.78;100.00
43770;BME280;6597;52.218;9.882;2024-03-06T02:16:57;101171.38;;;3.77;100.00
43770;BME280;6597;52.218;9.882;2024-03-06T02:19:23;101173.13;;;3.80;100.00
43770;BME280;6597;52.218;9.882;2024-03-06T02:21:53;101171.38;;;3.83;100.00
43770;BME280;6597;52.218;9.882;2024-03-06T02:24:20;101172.25;;;3.84;100.00
43770;BME280;6597;52.218;9.882;2024-03-06T02:26:46;101175.69;;;3.84;100.00
43770;BME280;6597;52.218;9.882;2024-03-06T02:29:13;101178.31;;;3.81;100.00
43770;BME280;6597;52.218;9.882;2024-03-06T02:31:39;101172.25;;;3.81;100.00
43770;BME280;6597;52.218;9.882;2024-03-06T02:34:06;101175.69;;;3.84;100.00
43770;BME280;6597;52.218;9.882;2024-03-06T02:36:33;101177.44;;;3.82;100.00
43770;BME280;6597;52.218;9.882;2024-03-06T02:39:00;101178.28;;;3.84;100.00
43770;BME280;6597;52.218;9.882;2024-03-06T02:41:34;101178.31;;;3.78;100.00
43770;BME280;6597;52.218;9.882;2024-03-06T02:44:01;101179.16;;;3.77;100.00
43770;BME280;6597;52.218;9.882;2024-03-06T02:46:28;101171.38;;;3.79;100.00
43770;BME280;6597;52.218;9.882;2024-03-06T02:48:54;101181.75;;;3.80;100.00
43770;BME280;6597;52.218;9.882;2024-03-06T02:51:21;101175.72;;;3.80;100.00
43770;BME280;6597;52.218;9.882;2024-03-06T02:53:48;101187.84;;;3.76;100.00
43770;BME280;6597;52.218;9.882;2024-03-06T02:56:19;101188.69;;;3.77;100.00
43770;BME280;6597;52.218;9.882;2024-03-06T02:58:46;101185.22;;;3.76;100.00
43770;BME280;6597;52.218;9.882;2024-03-06T03:01:13;101180.03;;;3.79;100.00
43770;BME280;6597;52.218;9.882;2024-03-06T03:03:40;101180.91;;;3.80;100.00
43770;BME280;6597;52.218;9.882;2024-03-06T03:06:07;101181.75;;;3.80;100.00
43770;BME280;6597;52.218;9.882;2024-03-06T03:08:34;101183.50;;;3.78;100.00
43770;BME280;6597;52.218;9.882;2024-03-06T03:11:00;101188.69;;;3.80;100.00
43770;BME280;6597;52.218;9.882;2024-03-06T03:13:29;101189.56;;;3.79;100.00
43770;BME280;6597;52.218;9.882;2024-03-06T03:15:56;101191.28;;;3.81;100.00
43770;BME280;6597;52.218;9.882;2024-03-06T03:18:23;101188.69;;;3.77;100.00
43770;BME280;6597;52.218;9.882;2024-03-06T03:20:50;101190.41;;;3.79;100.00
43770;BME280;6597;52.218;9.882;2024-03-06T03:23:16;101200.81;;;3.79;100.00
43770;BME280;6597;52.218;9.882;2024-03-06T03:25:47;101196.50;;;3.73;100.00
43770;BME280;6597;52.218;9.882;2024-03-06T03:28:14;101196.50;;;3.73;100.00
43770;BME280;6597;52.218;9.882;2024-03-06T03:30:42;101191.28;;;3.70;100.00
43770;BME280;6597;52.218;9.882;2024-03-06T03:33:10;101199.09;;;3.77;100.00
43770;BME280;6597;52.218;9.882;2024-03-06T03:35:36;101201.69;;;3.80;100.00
43770;BME280;6597;52.218;9.882;2024-03-06T03:38:03;101202.53;;;3.80;100.00
43770;BME280;6597;52.218;9.882;2024-03-06T03:40:30;101208.59;;;3.79;100.00
43770;BME280;6597;52.218;9.882;2024-03-06T03:42:58;101206.00;;;3.76;100.00
43770;BME280;6597;52.218;9.882;2024-03-06T03:45:24;101222.44;;;3.75;100.00
43770;BME280;6597;52.218;9.882;2024-03-06T03:47:52;101206.88;;;3.78;100.00
43770;BME280;6597;52.218;9.882;2024-03-06T03:50:19;101215.53;;;3.79;100.00
43770;BME280;6597;52.218;9.882;2024-03-06T03:52:45;101206.00;;;3.78;100.00
43770;BME280;6597;52.218;9.882;2024-03-06T03:55:12;101208.59;;;3.84;100.00
43770;BME280;6597;52.218;9.882;2024-03-06T03:57:38;101211.19;;;3.84;100.00
43770;BME280;6597;52.218;9.882;2024-03-06T04:00:06;101215.53;;;3.83;100.00
43770;BME280;6597;52.218;9.882;2024-03-06T04:02:37;101215.53;;;3.80;100.00
43770;BME280;6597;52.218;9.882;2024-03-06T04:05:06;101213.78;;;3.84;100.00
43770;BME280;6597;52.218;9.882;2024-03-06T04:07:33;101217.25;;;3.83;100.00
43770;BME280;6597;52.218;9.882;2024-03-06T04:09:59;101223.31;;;3.80;100.00
43770;BME280;6597;52.218;9.882;2024-03-06T04:12:26;101219.84;;;3.81;100.00
43770;BME280;6597;52.218;9.882;2024-03-06T04:14:53;101219.84;;;3.83;100.00
43770;BME280;6597;52.218;9.882;2024-03-06T04:17:19;101215.53;;;3.85;100.00
43770;BME280;6597;52.218;9.882;2024-03-06T04:19:46;101225.03;;;3.83;100.00
43770;BME280;6597;52.218;9.882;2024-03-06T04:22:15;101222.44;;;3.81;100.00
43770;BME280;6597;52.218;9.882;2024-03-06T04:24:44;101221.59;;;3.79;100.00
43770;BME280;6597;52.218;9.882;2024-03-06T04:27:11;101221.59;;;3.78;100.00
43770;BME280;6597;52.218;9.882;2024-03-06T04:29:37;101231.97;;;3.78;100.00
43770;BME280;6597;52.218;9.882;2024-03-06T04:32:04;101234.56;;;3.78;100.00
43770;BME280;6597;52.218;9.882;2024-03-06T04:34:31;101238.03;;;3.83;100.00
43770;BME280;6597;52.218;9.882;2024-03-06T04:36:57;101239.75;;;3.79;100.00
43770;BME280;6597;52.218;9.882;2024-03-06T04:39:25;101251.88;;;3.77;100.00
43770;BME280;6597;52.218;9.882;2024-03-06T04:41:52;101251.00;;;3.80;100.00
43770;BME280;6597;52.218;9.882;2024-03-06T04:44:18;101247.56;;;3.79;100.00
43770;BME280;6597;52.218;9.882;2024-03-06T04:46:45;101252.75;;;3.81;100.00
43770;BME280;6597;52.218;9.882;2024-03-06T04:49:10;101253.59;;;3.80;100.00
43770;BME280;6597;52.218;9.882;2024-03-06T04:51:37;101262.25;;;3.79;100.00
43770;BME280;6597;52.218;9.882;2024-03-06T04:54:03;101264.84;;;3.79;100.00
43770;BME280;6597;52.218;9.882;2024-03-06T04:56:31;101264.84;;;3.80;100.00
43770;BME280;6597;52.218;9.882;2024-03-06T04:58:59;101268.31;;;3.79;100.00
43770;BME280;6597;52.218;9.882;2024-03-06T05:01:28;101270.91;;;3.81;100.00
43770;BME280;6597;52.218;9.882;2024-03-06T05:03:55;101273.50;;;3.82;100.00
43770;BME280;6597;52.218;9.882;2024-03-06T05:06:22;101274.38;;;3.80;100.00
43770;BME280;6597;52.218;9.882;2024-03-06T05:08:49;101268.31;;;3.76;100.00
43770;BME280;6597;52.218;9.882;2024-03-06T05:11:16;101271.78;;;3.72;100.00
43770;BME280;6597;52.218;9.882;2024-03-06T05:13:44;101275.25;;;3.74;100.00
43770;BME280;6597;52.218;9.882;2024-03-06T05:16:10;101281.31;;;3.76;100.00
43770;BME280;6597;52.218;9.882;2024-03-06T05:18:37;101274.38;;;3.78;100.00
43770;BME280;6597;52.218;9.882;2024-03-06T05:21:04;101275.25;;;3.79;100.00
43770;BME280;6597;52.218;9.882;2024-03-06T05:23:30;101281.31;;;3.78;100.00
43770;BME280;6597;52.218;9.882;2024-03-06T05:25:57;101276.13;;;3.73;100.00
43770;BME280;6597;52.218;9.882;2024-03-06T05:28:23;101285.63;;;3.72;100.00
43770;BME280;6597;52.218;9.882;2024-03-06T05:30:52;101289.09;;;3.76;100.00
43770;BME280;6597;52.218;9.882;2024-03-06T05:33:18;101282.16;;;3.77;100.00
43770;BME280;6597;52.218;9.882;2024-03-06T05:35:45;101281.31;;;3.78;100.00
43770;BME280;6597;52.218;9.882;2024-03-06T05:38:11;101280.44;;;3.77;100.00
43770;BME280;6597;52.218;9.882;2024-03-06T05:40:38;101288.22;;;3.80;100.00
43770;BME280;6597;52.218;9.882;2024-03-06T05:43:05;101295.16;;;3.78;100.00
43770;BME280;6597;52.218;9.882;2024-03-06T05:45:32;101278.72;;;3.70;100.00
43770;BME280;6597;52.218;9.882;2024-03-06T05:48:00;101302.09;;;3.81;100.00
43770;BME280;6597;52.218;9.882;2024-03-06T05:50:29;101307.28;;;3.81;100.00
43770;BME280;6597;52.218;9.882;2024-03-06T05:52:56;101305.53;;;3.77;100.00
43770;BME280;6597;52.218;9.882;2024-03-06T05:55:23;101309.00;;;3.79;100.00
43770;BME280;6597;52.218;9.882;2024-03-06T05:57:50;101309.00;;;3.77;100.00
43770;BME280;6597;52.218;9.882;2024-03-06T06:00:17;101312.47;;;3.73;100.00
43770;BME280;6597;52.218;9.882;2024-03-06T06:02:47;101316.78;;;3.71;100.00
43770;BME280;6597;52.218;9.882;2024-03-06T06:05:15;101323.72;;;3.73;100.00
43770;BME280;6597;52.218;9.882;2024-03-06T06:07:45;101319.38;;;3.74;100.00
43770;BME280;6597;52.218;9.882;2024-03-06T06:10:12;101318.53;;;3.69;100.00
43770;BME280;6597;52.218;9.882;2024-03-06T06:12:38;101326.31;;;3.73;100.00
43770;BME280;6597;52.218;9.882;2024-03-06T06:15:05;101325.44;;;3.73;100.00
43770;BME280;6597;52.218;9.882;2024-03-06T06:17:32;101328.91;;;3.72;100.00
43770;BME280;6597;52.218;9.882;2024-03-06T06:19:59;101326.31;;;3.69;100.00
43770;BME280;6597;52.218;9.882;2024-03-06T06:22:28;101334.97;;;3.68;100.00
43770;BME280;6597;52.218;9.882;2024-03-06T06:24:54;101336.69;;;3.67;100.00
43770;BME280;6597;52.218;9.882;2024-03-06T06:27:22;101339.28;;;3.70;100.00
43770;BME280;6597;52.218;9.882;2024-03-06T06:29:50;101345.34;;;3.72;100.00
43770;BME280;6597;52.218;9.882;2024-03-06T06:32:18;101345.34;;;3.72;100.00
43770;BME280;6597;52.218;9.882;2024-03-06T06:34:45;101356.63;;;3.76;100.00
43770;BME280;6597;52.218;9.882;2024-03-06T06:37:12;101360.06;;;3.75;100.00
43770;BME280;6597;52.218;9.882;2024-03-06T06:39:41;101357.47;;;3.75;100.00
43770;BME280;6597;52.218;9.882;2024-03-06T06:42:08;101371.31;;;3.79;100.00
43770;BME280;6597;52.218;9.882;2024-03-06T06:44:36;101360.94;;;3.75;100.00
43770;BME280;6597;52.218;9.882;2024-03-06T06:47:02;101373.06;;;3.83;100.00
43770;BME280;6597;52.218;9.882;2024-03-06T06:49:29;101371.34;;;3.85;100.00
43770;BME280;6597;52.218;9.882;2024-03-06T06:51:55;101381.72;;;3.86;100.00
43770;BME280;6597;52.218;9.882;2024-03-06T06:54:22;101385.22;;;3.91;100.00
43770;BME280;6597;52.218;9.882;2024-03-06T06:56:50;101390.44;;;3.91;100.00
43770;BME280;6597;52.218;9.882;2024-03-06T06:59:16;101398.22;;;3.91;100.00
43770;BME280;6597;52.218;9.882;2024-03-06T07:01:45;101406.00;;;3.94;100.00
43770;BME280;6597;52.218;9.882;2024-03-06T07:04:12;101396.50;;;3.95;100.00
43770;BME280;6597;52.218;9.882;2024-03-06T07:06:41;101402.56;;;3.98;100.00
43770;BME280;6597;52.218;9.882;2024-03-06T07:09:08;101410.34;;;3.98;100.00
43770;BME280;6597;52.218;9.882;2024-03-06T07:11:36;101400.81;;;3.99;100.00
43770;BME280;6597;52.218;9.882;2024-03-06T07:14:04;101406.88;;;4.02;100.00
43770;BME280;6597;52.218;9.882;2024-03-06T07:16:30;101402.56;;;4.04;100.00
43770;BME280;6597;52.218;9.882;2024-03-06T07:18:57;101413.81;;;4.06;100.00
43770;BME280;6597;52.218;9.882;2024-03-06T07:21:24;101411.22;;;4.06;100.00
43770;BME280;6597;52.218;9.882;2024-03-06T07:23:51;101413.81;;;4.11;100.00
43770;BME280;6597;52.218;9.882;2024-03-06T07:26:18;101418.16;;;4.15;100.00
43770;BME280;6597;52.218;9.882;2024-03-06T07:28:44;101396.50;;;4.02;100.00
43770;BME280;6597;52.218;9.882;2024-03-06T07:31:12;101421.63;;;4.14;100.00
43770;BME280;6597;52.218;9.882;2024-03-06T07:33:38;101427.69;;;4.19;100.00
43770;BME280;6597;52.218;9.882;2024-03-06T07:36:05;101427.69;;;4.19;100.00
43770;BME280;6597;52.218;9.882;2024-03-06T07:38:32;101425.97;;;4.21;100.00
43770;BME280;6597;52.218;9.882;2024-03-06T07:40:58;101431.16;;;4.17;100.00
43770;BME280;6597;52.218;9.882;2024-03-06T07:43:25;101434.63;;;4.16;100.00
43770;BME280;6597;52.218;9.882;2024-03-06T07:45:52;101446.75;;;4.09;100.00
43770;BME280;6597;52.218;9.882;2024-03-06T07:48:20;101453.66;;;4.12;100.00
43770;BME280;6597;52.218;9.882;2024-03-06T07:50:46;101452.81;;;4.17;100.00
43770;BME280;6597;52.218;9.882;2024-03-06T07:53:13;101449.34;;;4.17;100.00
43770;BME280;6597;52.218;9.882;2024-03-06T07:55:39;101455.41;;;4.16;100.00
43770;BME280;6597;52.218;9.882;2024-03-06T07:58:06;101451.94;;;4.17;100.00
43770;BME280;6597;52.218;9.882;2024-03-06T08:00:33;101462.34;;;4.14;100.00
43770;BME280;6597;52.218;9.882;2024-03-06T08:03:00;101462.34;;;4.12;100.00
43770;BME280;6597;52.218;9.882;2024-03-06T08:05:28;101469.28;;;4.18;100.00
43770;BME280;6597;52.218;9.882;2024-03-06T08:07:55;101475.34;;;4.20;100.00
43770;BME280;6597;52.218;9.882;2024-03-06T08:10:21;101473.59;;;4.22;100.00
43770;BME280;6597;52.218;9.882;2024-03-06T08:12:48;101471.88;;;4.16;100.00
43770;BME280;6597;52.218;9.882;2024-03-06T08:15:15;101475.38;;;4.23;100.00
43770;BME280;6597;52.218;9.882;2024-03-06T08:17:43;101474.50;;;4.25;100.00
43770;BME280;6597;52.218;9.882;2024-03-06T08:20:10;101482.25;;;4.19;100.00
43770;BME280;6597;52.218;9.882;2024-03-06T08:22:40;101478.84;;;4.23;100.00
43770;BME280;6597;52.218;9.882;2024-03-06T08:25:07;101492.66;;;4.22;100.00
43770;BME280;6597;52.218;9.882;2024-03-06T08:27:35;101495.25;;;4.21;100.00
43770;BME280;6597;52.218;9.882;2024-03-06T08:30:02;101489.19;;;4.17;100.00
43770;BME280;6597;52.218;9.882;2024-03-06T08:32:30;101495.25;;;4.16;100.00
43770;BME280;6597;52.218;9.882;2024-03-06T08:34:56;101495.25;;;4.13;100.00
43770;BME280;6597;52.218;9.882;2024-03-06T08:37:23;101506.50;;;4.15;100.00
43770;BME280;6597;52.218;9.882;2024-03-06T08:39:51;101510.84;;;4.21;100.00
43770;BME280;6597;52.218;9.882;2024-03-06T08:42:17;101512.63;;;4.25;100.00
43770;BME280;6597;52.218;9.882;2024-03-06T08:44:44;101516.97;;;4.32;100.00
43770;BME280;6597;52.218;9.882;2024-03-06T08:47:11;101516.09;;;4.31;100.00
43770;BME280;6597;52.218;9.882;2024-03-06T08:49:40;101524.78;;;4.35;100.00
43770;BME280;6597;52.218;9.882;2024-03-06T08:52:06;101520.44;;;4.43;100.00
43770;BME280;6597;52.218;9.882;2024-03-06T08:54:33;101527.41;;;4.50;100.00
43770;BME280;6597;52.218;9.882;2024-03-06T08:57:02;101537.84;;;4.56;100.00
43770;BME280;6597;52.218;9.882;2024-03-06T08:59:28;101528.31;;;4.55;100.00
43770;BME280;6597;52.218;9.882;2024-03-06T09:01:55;101530.91;;;4.60;100.00
43770;BME280;6597;52.218;9.882;2024-03-06T09:04:23;101533.50;;;4.66;100.00
43770;BME280;6597;52.218;9.882;2024-03-06T09:06:49;101535.25;;;4.65;100.00
43770;BME280;6597;52.218;9.882;2024-03-06T09:09:16;101546.50;;;4.55;100.00
43770;BME280;6597;52.218;9.882;2024-03-06T09:11:43;101543.91;;;4.55;100.00
43770;BME280;6597;52.218;9.882;2024-03-06T09:14:11;101548.22;;;4.56;100.00
43770;BME280;6597;52.218;9.882;2024-03-06T09:16:37;101546.50;;;4.63;100.00
43770;BME280;6597;52.218;9.882;2024-03-06T09:19:04;101546.50;;;4.63;100.00
43770;BME280;6597;52.218;9.882;2024-03-06T09:21:30;101547.38;;;4.73;100.00
43770;BME280;6597;52.218;9.882;2024-03-06T09:23:57;101550.84;;;4.84;100.00
43770;BME280;6597;52.218;9.882;2024-03-06T09:26:23;101550.03;;;4.91;100.00
43770;BME280;6597;52.218;9.882;2024-03-06T09:28:50;101557.81;;;5.00;100.00
43770;BME280;6597;52.218;9.882;2024-03-06T09:31:18;101554.34;;;5.10;100.00
43770;BME280;6597;52.218;9.882;2024-03-06T09:33:44;101558.69;;;5.17;100.00
43770;BME280;6597;52.218;9.882;2024-03-06T09:36:12;101559.53;;;5.19;100.00
43770;BME280;6597;52.218;9.882;2024-03-06T09:38:39;101569.97;;;5.28;100.00
43770;BME280;6597;52.218;9.882;2024-03-06T09:41:07;101569.09;;;5.43;100.00
43770;BME280;6597;52.218;9.882;2024-03-06T09:43:34;101568.22;;;5.53;100.00
43770;BME280;6597;52.218;9.882;2024-03-06T09:46:01;101578.63;;;5.61;100.00
43770;BME280;6597;52.218;9.882;2024-03-06T09:48:29;101568.19;;;5.69;100.00
43770;BME280;6597;52.218;9.882;2024-03-06T09:51:00;101570.75;;;5.78;100.00
43770;BME280;6597;52.218;9.882;2024-03-06T09:53:27;101575.97;;;5.78;100.00
43770;BME280;6597;52.218;9.882;2024-03-06T09:55:56;101571.66;;;5.72;99.36
43770;BME280;6597;52.218;9.882;2024-03-06T09:58:23;101583.78;;;5.76;100.00
43770;BME280;6597;52.218;9.882;2024-03-06T10:00:50;101584.66;;;5.87;99.84
43770;BME280;6597;52.218;9.882;2024-03-06T10:03:17;101588.13;;;5.99;98.98
43770;BME280;6597;52.218;9.882;2024-03-06T10:05:46;101587.22;;;6.07;98.59
43770;BME280;6597;52.218;9.882;2024-03-06T10:08:13;101585.47;;;6.18;98.77
43770;BME280;6597;52.218;9.882;2024-03-06T10:10:41;101592.28;;;6.42;96.92
43770;BME280;6597;52.218;9.882;2024-03-06T10:13:08;101585.31;;;6.50;94.18
43770;BME280;6597;52.218;9.882;2024-03-06T10:15:34;101592.22;;;6.58;93.02
43770;BME280;6597;52.218;9.882;2024-03-06T10:18:14;101585.97;;;6.81;92.74
43770;BME280;6597;52.218;9.882;2024-03-06T10:20:43;101594.66;;;6.90;89.17
43770;BME280;6597;52.218;9.882;2024-03-06T10:23:11;101581.53;;;6.99;88.41
43770;BME280;6597;52.218;9.882;2024-03-06T10:25:38;101597.19;;;7.00;87.60
43770;BME280;6597;52.218;9.882;2024-03-06T10:28:06;101593.63;;;7.10;84.04
43770;BME280;6597;52.218;9.882;2024-03-06T10:30:33;101608.41;;;7.11;83.66
43770;BME280;6597;52.218;9.882;2024-03-06T10:33:02;101592.75;;;7.10;84.16
43770;BME280;6597;52.218;9.882;2024-03-06T10:35:28;101598.75;;;7.26;82.97
43770;BME280;6597;52.218;9.882;2024-03-06T10:37:55;101613.59;;;7.14;81.36
43770;BME280;6597;52.218;9.882;2024-03-06T10:40:24;101605.78;;;7.17;81.05
43770;BME280;6597;52.218;9.882;2024-03-06T10:42:51;101601.25;;;7.36;82.05
43770;BME280;6597;52.218;9.882;2024-03-06T10:45:20;101603.75;;;7.52;81.76
43770;BME280;6597;52.218;9.882;2024-03-06T10:47:48;101610.63;;;7.62;80.28
43770;BME280;6597;52.218;9.882;2024-03-06T10:50:15;101614.06;;;7.65;79.61
43770;BME280;6597;52.218;9.882;2024-03-06T10:52:44;101603.63;;;7.65;78.17
43770;BME280;6597;52.218;9.882;2024-03-06T10:55:12;101617.53;;;7.67;78.09
43770;BME280;6597;52.218;9.882;2024-03-06T10:57:41;101608.78;;;7.70;77.40
43770;BME280;6597;52.218;9.882;2024-03-06T11:00:10;101609.66;;;7.70;77.17
43770;BME280;6597;52.218;9.882;2024-03-06T11:02:41;101615.75;;;7.69;76.45
43770;BME280;6597;52.218;9.882;2024-03-06T11:05:09;101605.31;;;7.69;77.51
43770;BME280;6597;52.218;9.882;2024-03-06T11:07:36;101612.22;;;7.76;76.64
43770;BME280;6597;52.218;9.882;2024-03-06T11:10:04;101613.91;;;7.84;76.30
43770;BME280;6597;52.218;9.882;2024-03-06T11:12:35;101614.66;;;7.93;77.68
43770;BME280;6597;52.218;9.882;2024-03-06T11:15:10;101607.47;;;8.12;77.07
43770;BME280;6597;52.218;9.882;2024-03-06T11:17:39;101617.91;;;8.17;73.51
43770;BME280;6597;52.218;9.882;2024-03-06T11:20:16;101618.56;;;8.35;75.03
43770;BME280;6597;52.218;9.882;2024-03-06T11:23:02;101623.72;;;8.41;73.06
43770;BME280;6597;52.218;9.882;2024-03-06T11:26:02;101621.13;;;8.40;70.96
43770;BME280;6597;52.218;9.882;2024-03-06T11:28:30;101622.06;;;8.33;72.89
43770;BME280;6597;52.218;9.882;2024-03-06T11:31:01;101622.84;;;8.41;72.34
43770;BME280;6597;52.218;9.882;2024-03-06T11:33:34;101620.16;;;8.49;72.87
43770;BME280;6597;52.218;9.882;2024-03-06T11:36:19;101622.81;;;8.47;70.31
43770;BME280;6597;52.218;9.882;2024-03-06T11:38:47;101622.84;;;8.42;68.98
43770;BME280;6597;52.218;9.882;2024-03-06T11:41:13;101629.06;;;8.29;70.04
43770;BME280;6597;52.218;9.882;2024-03-06T11:43:43;101630.09;;;8.18;70.13
43770;BME280;6597;52.218;9.882;2024-03-06T11:46:12;101629.13;;;8.26;71.15
43770;BME280;6597;52.218;9.882;2024-03-06T11:48:38;101626.41;;;8.35;69.96
43770;BME280;6597;52.218;9.882;2024-03-06T11:51:05;101628.91;;;8.48;70.82
43770;BME280;6597;52.218;9.882;2024-03-06T11:53:33;101621.91;;;8.50;68.90
43770;BME280;6597;52.218;9.882;2024-03-06T11:56:00;101631.25;;;8.67;68.28
43770;BME280;6597;52.218;9.882;2024-03-06T11:58:27;101627.78;;;8.65;67.30
43770;BME280;6597;52.218;9.882;2024-03-06T12:00:53;101627.63;;;8.76;69.52
43770;BME280;6597;52.218;9.882;2024-03-06T12:03:22;101626.69;;;8.83;69.57
43770;BME280;6597;52.218;9.882;2024-03-06T12:05:50;101627.50;;;8.87;67.77
43770;BME280;6597;52.218;9.882;2024-03-06T12:08:18;101626.72;;;8.80;67.73
43770;BME280;6597;52.218;9.882;2024-03-06T12:10:45;101633.94;;;8.63;68.11
43770;BME280;6597;52.218;9.882;2024-03-06T12:13:12;101632.25;;;8.57;67.63
43770;BME280;6597;52.218;9.882;2024-03-06T12:15:42;101635.81;;;8.52;66.93
43770;BME280;6597;52.218;9.882;2024-03-06T12:18:09;101631.34;;;8.60;67.93
43770;BME280;6597;52.218;9.882;2024-03-06T12:20:41;101633.97;;;8.60;67.74
43770;BME280;6597;52.218;9.882;2024-03-06T12:23:19;101633.88;;;8.66;69.31
43770;BME280;6597;52.218;9.882;2024-03-06T12:25:47;101637.38;;;8.65;69.13
43770;BME280;6597;52.218;9.882;2024-03-06T12:28:14;101638.19;;;8.70;69.06
43770;BME280;6597;52.218;9.882;2024-03-06T12:30:41;101644.28;;;8.70;69.53
43770;BME280;6597;52.218;9.882;2024-03-06T12:33:10;101634.72;;;8.69;69.06
43770;BME280;6597;52.218;9.882;2024-03-06T12:35:41;101639.97;;;8.68;70.03
43770;BME280;6597;52.218;9.882;2024-03-06T12:38:12;101638.09;;;8.79;69.66
43770;BME280;6597;52.218;9.882;2024-03-06T12:40:39;101634.44;;;8.89;69.58
43770;BME280;6597;52.218;9.882;2024-03-06T12:43:05;101634.28;;;9.00;69.74
43770;BME280;6597;52.218;9.882;2024-03-06T12:45:33;101615.84;;;9.08;69.61
43770;BME280;6597;52.218;9.882;2024-03-06T12:48:00;101638.31;;;9.22;68.55
43770;BME280;6597;52.218;9.882;2024-03-06T12:50:26;101629.69;;;9.16;66.05
43770;BME280;6597;52.218;9.882;2024-03-06T12:52:54;101630.66;;;9.09;66.42
43770;BME280;6597;52.218;9.882;2024-03-06T12:55:20;101626.28;;;9.09;67.30
43770;BME280;6597;52.218;9.882;2024-03-06T12:57:47;101625.13;;;9.28;67.25
43770;BME280;6597;52.218;9.882;2024-03-06T13:00:15;101622.28;;;9.41;66.12
43770;BME280;6597;52.218;9.882;2024-03-06T13:02:42;101616.06;;;9.49;67.68
43770;BME280;6597;52.218;9.882;2024-03-06T13:05:09;101618.59;;;9.54;67.38